Time;durP1;ratioP1;P1;durP2;ratioP2;P2;SDS_P1;SDS_P2;PMS_P1;PMS_P2;Temp;Humidity;BMP_temperature;BMP_pressure;BME280_temperature;BME280_humidity;BME280_pressure;Samples;Min_cycle;Max_cycle;Signal;HPM_P1;HPM_P2
2022/10/15 00:01:44;;;;;;;33.37;23.03;;;13.70;95.80;;;;;;5037859;28;20177;-92
2022/10/15 00:06:54;;;;;;;37.53;24.97;;;13.70;95.90;;;;;;5089130;22;20750;-91
2022/10/15 00:09:45;;;;;;;40.47;26.03;;;13.80;96.00;;;;;;5067178;28;20237;-92
2022/10/15 00:15:23;;;;;;;43.30;27.27;;;13.80;96.00;;;;;;4972522;28;20204;-91
2022/10/15 00:21:08;;;;;;;43.07;28.47;;;13.80;96.00;;;;;;5534870;22;20259;-91
2022/10/15 00:23:43;;;;;;;44.50;29.53;;;13.90;96.00;;;;;;5023292;28;20205;-91
2022/10/15 00:26:15;;;;;;;51.77;31.73;;;13.90;96.00;;;;;;5024012;28;20180;-92
2022/10/15 00:28:52;;;;;;;45.97;32.80;;;14.00;96.00;;;;;;5024462;28;20200;-92
2022/10/15 00:31:31;;;;;;;55.27;35.10;;;13.90;96.00;;;;;;5027647;28;20200;-91
2022/10/15 00:34:01;;;;;;;50.57;33.17;;;14.00;96.00;;;;;;5027005;28;20185;-92
2022/10/15 00:37:08;;;;;;;50.40;33.67;;;13.90;95.90;;;;;;5029003;28;20169;-93
2022/10/15 00:39:41;;;;;;;50.60;31.87;;;13.90;95.90;;;;;;5040446;28;20188;-91
2022/10/15 00:42:28;;;;;;;56.27;35.80;;;13.90;95.80;;;;;;5028047;28;20237;-92
2022/10/15 00:45:00;;;;;;;59.00;36.20;;;13.90;95.80;;;;;;5026737;28;20347;-92
2022/10/15 00:47:47;;;;;;;58.10;37.07;;;13.90;95.70;;;;;;5029323;28;20188;-91
2022/10/15 00:50:22;;;;;;;53.37;35.83;;;13.90;95.70;;;;;;5027633;28;20172;-91
2022/10/15 00:53:08;;;;;;;58.17;36.27;;;13.80;95.50;;;;;;5021747;28;20235;-91
2022/10/15 00:55:37;;;;;;;58.00;37.57;;;13.80;95.40;;;;;;5019306;28;20671;-91
2022/10/15 00:58:16;;;;;;;60.40;38.00;;;13.80;95.40;;;;;;5019573;28;20173;-91
2022/10/15 01:00:42;;;;;;;56.60;36.07;;;13.80;95.20;;;;;;5019555;28;20164;-91
2022/10/15 01:03:11;;;;;;;56.83;37.07;;;13.70;95.20;;;;;;5019103;28;20173;-91
2022/10/15 01:05:40;;;;;;;58.17;37.80;;;13.70;95.10;;;;;;5018736;28;20192;-92
2022/10/15 01:08:05;;;;;;;55.13;37.13;;;13.60;95.00;;;;;;5019505;28;20177;-91
2022/10/15 01:10:43;;;;;;;61.13;39.77;;;13.60;95.00;;;;;;5018415;28;20551;-92
2022/10/15 01:13:18;;;;;;;57.33;35.20;;;13.50;94.90;;;;;;5019564;28;20699;-91
2022/10/15 01:15:50;;;;;;;57.70;37.53;;;13.50;94.80;;;;;;5019118;28;20179;-92
2022/10/15 01:18:48;;;;;;;58.73;39.23;;;13.50;94.80;;;;;;5018643;28;20650;-91
2022/10/15 01:21:45;;;;;;;64.03;39.47;;;13.50;94.70;;;;;;5018225;28;20207;-92
2022/10/15 01:24:32;;;;;;;61.03;39.17;;;13.50;94.70;;;;;;5019307;28;20206;-91
2022/10/15 01:27:26;;;;;;;66.43;40.43;;;13.40;94.50;;;;;;5019093;28;20177;-92
2022/10/15 01:30:05;;;;;;;65.53;40.80;;;13.40;94.40;;;;;;5018090;28;20318;-92
2022/10/15 01:32:42;;;;;;;66.50;40.17;;;13.40;94.20;;;;;;5019654;28;20168;-92
2022/10/15 01:35:39;;;;;;;69.47;41.03;;;13.40;94.10;;;;;;5018738;28;20200;-92
2022/10/15 01:38:42;;;;;;;64.17;39.30;;;13.40;94.10;;;;;;5017757;28;20201;-92
2022/10/15 01:41:26;;;;;;;63.27;40.47;;;13.40;94.10;;;;;;5018325;28;20184;-92
2022/10/15 01:44:21;;;;;;;60.57;39.07;;;13.40;94.00;;;;;;5018407;28;20196;-91
2022/10/15 01:46:53;;;;;;;73.10;41.80;;;13.40;94.00;;;;;;5016832;28;20253;-91
2022/10/15 01:49:25;;;;;;;64.87;39.90;;;13.50;93.90;;;;;;5018622;28;20659;-92
2022/10/15 01:51:52;;;;;;;68.83;42.00;;;13.40;93.90;;;;;;5019611;28;20169;-92
2022/10/15 01:54:25;;;;;;;66.13;42.47;;;13.40;93.80;;;;;;5018984;28;20287;-92
2022/10/15 01:56:52;;;;;;;69.20;42.70;;;13.40;93.80;;;;;;5019171;28;20172;-91
2022/10/15 01:59:22;;;;;;;68.13;41.77;;;13.30;93.70;;;;;;5019471;28;20263;-91
2022/10/15 02:01:54;;;;;;;61.47;39.07;;;13.30;93.60;;;;;;5019399;28;20222;-91
2022/10/15 02:04:31;;;;;;;62.90;40.60;;;13.30;93.60;;;;;;5019557;28;20217;-92
2022/10/15 02:07:08;;;;;;;62.27;40.33;;;13.20;93.50;;;;;;5019577;28;20207;-91
2022/10/15 02:09:51;;;;;;;64.97;40.43;;;13.10;93.50;;;;;;5019171;28;20231;-91
2022/10/15 02:12:23;;;;;;;57.67;40.23;;;13.10;93.40;;;;;;5019366;28;20173;-91
2022/10/15 02:15:04;;;;;;;56.93;39.63;;;13.10;93.30;;;;;;5018433;28;20208;-91
2022/10/15 02:17:59;;;;;;;58.33;38.87;;;13.00;93.30;;;;;;5018845;28;20639;-91
2022/10/15 02:20:35;;;;;;;58.30;39.77;;;12.90;93.20;;;;;;4994985;28;20184;-91
2022/10/15 02:23:11;;;;;;;63.90;39.73;;;12.90;93.20;;;;;;5018207;28;20676;-91
2022/10/15 02:25:41;;;;;;;56.47;36.93;;;12.80;93.10;;;;;;5018461;28;20268;-91
2022/10/15 02:28:09;;;;;;;57.03;36.70;;;12.80;93.10;;;;;;5018592;28;20259;-91
2022/10/15 02:30:37;;;;;;;58.87;37.53;;;12.80;93.10;;;;;;5018754;28;20218;-91
2022/10/15 02:33:04;;;;;;;58.43;35.37;;;12.90;93.10;;;;;;5018347;28;20177;-91
2022/10/15 02:35:31;;;;;;;57.77;36.97;;;12.90;93.10;;;;;;5017921;28;20196;-91
2022/10/15 02:38:02;;;;;;;59.30;34.80;;;12.90;93.10;;;;;;5018509;28;20613;-91
2022/10/15 02:40:34;;;;;;;67.73;35.57;;;12.80;93.10;;;;;;5017680;28;20264;-91
2022/10/15 02:43:04;;;;;;;56.87;34.77;;;12.80;93.10;;;;;;5017442;28;20172;-91
2022/10/15 02:45:32;;;;;;;62.20;35.73;;;12.80;93.20;;;;;;5017705;28;20216;-92
2022/10/15 02:47:58;;;;;;;68.13;37.73;;;12.70;93.20;;;;;;5017941;28;20181;-91
2022/10/15 02:50:27;;;;;;;65.13;37.47;;;12.70;93.40;;;;;;5019268;28;20180;-92
2022/10/15 02:52:52;;;;;;;60.47;36.83;;;12.70;93.50;;;;;;5021767;28;20185;-91
2022/10/15 02:55:18;;;;;;;60.10;35.97;;;12.70;93.50;;;;;;5021755;28;20267;-91
2022/10/15 02:57:44;;;;;;;63.33;35.00;;;12.70;93.50;;;;;;5021679;28;20593;-92
2022/10/15 03:00:12;;;;;;;59.60;36.93;;;12.70;93.50;;;;;;5022246;28;20329;-91
2022/10/15 03:02:38;;;;;;;62.87;36.30;;;12.80;93.60;;;;;;5023345;28;20176;-92
2022/10/15 03:05:07;;;;;;;58.07;35.47;;;12.80;93.60;;;;;;5021338;28;20201;-91
2022/10/15 03:07:37;;;;;;;64.13;36.67;;;12.80;93.60;;;;;;5022026;28;20675;-92
2022/10/15 03:10:17;;;;;;;64.20;37.03;;;12.80;93.70;;;;;;5022058;28;20205;-91
2022/10/15 03:12:43;;;;;;;69.93;37.87;;;12.80;93.70;;;;;;5022394;28;20165;-92
2022/10/15 03:15:09;;;;;;;65.73;35.80;;;12.70;93.80;;;;;;5021433;28;20508;-91
2022/10/15 03:17:34;;;;;;;66.13;38.60;;;12.70;93.90;;;;;;5022105;28;20187;-92
2022/10/15 03:20:03;;;;;;;72.23;36.03;;;12.70;93.90;;;;;;5021991;28;20303;-91
2022/10/15 03:22:29;;;;;;;69.00;37.33;;;12.70;94.00;;;;;;5022078;28;20192;-91
2022/10/15 03:24:54;;;;;;;66.37;36.50;;;12.70;94.00;;;;;;5023008;28;20201;-92
2022/10/15 03:27:20;;;;;;;71.00;36.90;;;12.60;94.00;;;;;;5023718;28;20236;-92
2022/10/15 03:29:46;;;;;;;70.20;35.97;;;12.60;94.10;;;;;;5022461;28;20251;-91
2022/10/15 03:32:13;;;;;;;67.87;34.90;;;12.60;94.10;;;;;;5022063;28;20173;-91
2022/10/15 03:34:39;;;;;;;72.17;35.90;;;12.60;94.10;;;;;;5023391;28;20233;-91
2022/10/15 03:37:07;;;;;;;71.87;37.03;;;12.70;94.20;;;;;;5022216;28;20177;-92
2022/10/15 03:39:33;;;;;;;75.80;37.47;;;12.70;94.20;;;;;;5022435;28;20193;-91
2022/10/15 03:41:58;;;;;;;79.03;38.90;;;12.70;94.20;;;;;;5020952;28;20179;-91
2022/10/15 03:44:26;;;;;;;79.63;38.30;;;12.70;94.20;;;;;;5021251;28;20200;-91
2022/10/15 03:46:52;;;;;;;78.10;38.33;;;12.70;94.20;;;;;;5021625;28;20176;-92
2022/10/15 03:49:20;;;;;;;80.50;37.33;;;12.70;94.30;;;;;;5021372;28;20299;-91
2022/10/15 03:51:46;;;;;;;77.53;37.13;;;12.60;94.30;;;;;;5021461;28;20245;-91
2022/10/15 03:54:11;;;;;;;82.20;39.37;;;12.60;94.30;;;;;;5020635;28;20211;-91
2022/10/15 03:56:37;;;;;;;81.13;39.43;;;12.60;94.40;;;;;;5022109;28;20551;-92
2022/10/15 03:59:05;;;;;;;82.83;40.17;;;12.50;94.40;;;;;;5021538;28;20211;-91
2022/10/15 04:01:31;;;;;;;86.13;40.03;;;12.50;94.50;;;;;;5020982;28;20272;-91
2022/10/15 04:03:56;;;;;;;89.33;42.57;;;12.50;94.50;;;;;;5022807;28;20220;-92
2022/10/15 04:06:22;;;;;;;84.43;40.87;;;12.50;94.50;;;;;;5021379;28;20218;-91
2022/10/15 04:08:50;;;;;;;96.87;42.37;;;12.50;94.50;;;;;;5021941;28;20215;-91
2022/10/15 04:11:18;;;;;;;82.90;39.73;;;12.50;94.50;;;;;;5022206;28;20203;-91
2022/10/15 04:13:48;;;;;;;88.30;41.37;;;12.50;94.50;;;;;;5022137;28;20200;-91
2022/10/15 04:16:17;;;;;;;82.63;38.90;;;12.50;94.50;;;;;;5021673;28;20703;-92
2022/10/15 04:18:45;;;;;;;91.77;41.27;;;12.50;94.50;;;;;;5021928;28;20196;-92
2022/10/15 04:21:10;;;;;;;110.43;44.80;;;12.50;94.60;;;;;;5022620;28;20220;-93
2022/10/15 04:23:36;;;;;;;84.40;35.87;;;12.50;94.60;;;;;;5021260;28;20212;-91
2022/10/15 04:26:02;;;;;;;98.60;40.17;;;12.40;94.60;;;;;;5021676;28;20260;-92
2022/10/15 04:28:28;;;;;;;89.50;38.70;;;12.40;94.60;;;;;;5021245;28;20212;-91
2022/10/15 04:30:58;;;;;;;99.80;42.57;;;12.40;94.70;;;;;;5021388;28;20669;-92
2022/10/15 04:33:24;;;;;;;112.97;44.37;;;12.40;94.70;;;;;;5020701;28;20173;-92
2022/10/15 04:36:10;;;;;;;113.13;43.87;;;12.40;94.70;;;;;;5021060;28;20242;-92
2022/10/15 04:38:36;;;;;;;109.50;44.07;;;12.40;94.80;;;;;;5021660;28;20169;-91
2022/10/15 04:41:07;;;;;;;115.53;44.37;;;12.40;94.80;;;;;;5021794;28;20230;-91
2022/10/15 04:43:36;;;;;;;113.20;44.73;;;12.30;94.80;;;;;;5021373;28;20177;-92
2022/10/15 04:46:11;;;;;;;115.60;44.80;;;12.30;94.90;;;;;;5020268;28;20185;-91
2022/10/15 04:48:40;;;;;;;115.23;43.20;;;12.30;94.90;;;;;;5021466;28;20200;-91
2022/10/15 04:51:17;;;;;;;111.77;42.80;;;12.30;95.00;;;;;;5021110;28;20546;-91
2022/10/15 04:53:43;;;;;;;114.70;42.17;;;12.30;95.00;;;;;;5023822;28;20193;-92
2022/10/15 04:56:14;;;;;;;109.17;41.67;;;12.30;95.00;;;;;;5021564;28;20204;-91
2022/10/15 04:58:43;;;;;;;119.60;42.57;;;12.30;95.10;;;;;;5021438;28;20181;-91
2022/10/15 05:01:15;;;;;;;115.47;41.97;;;12.30;95.10;;;;;;5021234;28;20276;-91
2022/10/15 05:03:42;;;;;;;113.90;44.27;;;12.30;95.10;;;;;;5022828;28;20193;-91
2022/10/15 05:06:12;;;;;;;126.97;44.43;;;12.30;95.10;;;;;;5024253;28;20173;-91
2022/10/15 05:08:42;;;;;;;116.00;40.40;;;12.30;95.20;;;;;;5022510;28;20201;-91
2022/10/15 05:11:29;;;;;;;124.50;41.33;;;12.30;95.20;;;;;;5022066;28;20179;-91
2022/10/15 05:13:56;;;;;;;137.67;44.33;;;12.30;95.20;;;;;;5019831;28;20197;-91
2022/10/15 05:16:26;;;;;;;138.00;47.73;;;12.30;95.20;;;;;;5021845;28;20179;-91
2022/10/15 05:18:58;;;;;;;137.33;47.70;;;12.30;95.30;;;;;;5021111;28;20176;-91
2022/10/15 05:21:24;;;;;;;128.60;46.00;;;12.30;95.30;;;;;;5022826;28;20259;-91
2022/10/15 05:23:52;;;;;;;145.20;51.03;;;12.30;95.30;;;;;;5025834;28;20228;-91
2022/10/15 05:26:21;;;;;;;135.23;47.03;;;12.30;95.30;;;;;;5020617;28;20521;-91
2022/10/15 05:28:50;;;;;;;138.67;49.23;;;12.30;95.30;;;;;;5021796;28;20204;-91
2022/10/15 05:31:19;;;;;;;147.43;49.23;;;12.30;95.30;;;;;;5020905;28;20183;-91
2022/10/15 05:33:46;;;;;;;143.70;49.03;;;12.30;95.30;;;;;;5020026;28;20196;-91
2022/10/15 05:36:23;;;;;;;141.93;52.13;;;12.30;95.40;;;;;;5020774;28;20230;-91
2022/10/15 05:38:55;;;;;;;140.77;48.60;;;12.30;95.40;;;;;;5019980;28;20191;-91
2022/10/15 05:41:21;;;;;;;139.03;50.67;;;12.30;95.40;;;;;;5022044;28;20176;-91
2022/10/15 05:43:50;;;;;;;137.73;49.47;;;12.30;95.40;;;;;;5029731;28;20231;-92
2022/10/15 05:46:16;;;;;;;132.47;49.30;;;12.30;95.40;;;;;;5025285;28;20701;-91
2022/10/15 05:48:42;;;;;;;137.07;50.53;;;12.30;95.40;;;;;;5020192;28;20236;-91
2022/10/15 05:51:11;;;;;;;147.10;51.57;;;12.30;95.40;;;;;;5020386;28;20211;-91
2022/10/15 05:53:38;;;;;;;143.00;50.97;;;12.30;95.40;;;;;;5021005;28;20204;-91
2022/10/15 05:56:07;;;;;;;138.63;51.90;;;12.30;95.40;;;;;;5019955;28;20168;-91
2022/10/15 05:58:34;;;;;;;137.77;49.50;;;12.30;95.40;;;;;;5021774;28;20529;-91
2022/10/15 06:01:01;;;;;;;149.90;53.50;;;12.30;95.40;;;;;;5020992;28;20311;-91
2022/10/15 06:03:28;;;;;;;150.17;53.43;;;12.30;95.40;;;;;;5020821;28;20269;-91
2022/10/15 06:05:54;;;;;;;149.63;53.30;;;12.30;95.40;;;;;;5020831;28;20180;-91
2022/10/15 06:08:21;;;;;;;147.60;53.17;;;12.30;95.40;;;;;;5022073;28;20212;-91
2022/10/15 06:10:47;;;;;;;137.57;50.73;;;12.30;95.40;;;;;;5020874;28;20179;-91
2022/10/15 06:13:13;;;;;;;153.80;53.87;;;12.30;95.30;;;;;;5021242;28;20176;-91
2022/10/15 06:15:40;;;;;;;143.10;47.90;;;12.30;95.30;;;;;;5020712;28;20200;-91
2022/10/15 06:18:11;;;;;;;158.27;55.17;;;12.30;95.30;;;;;;5021189;28;20172;-91
2022/10/15 06:20:37;;;;;;;162.53;57.67;;;12.30;95.30;;;;;;5021430;28;20173;-91
2022/10/15 06:23:04;;;;;;;146.83;54.70;;;12.30;95.30;;;;;;5021308;28;20268;-91
2022/10/15 06:25:29;;;;;;;157.03;57.00;;;12.30;95.20;;;;;;5022579;28;20197;-91
2022/10/15 06:27:55;;;;;;;158.70;57.70;;;12.30;95.20;;;;;;5025493;28;20173;-91
2022/10/15 06:30:26;;;;;;;159.13;55.97;;;12.30;95.20;;;;;;5026000;28;20635;-91
2022/10/15 06:32:56;;;;;;;160.30;57.43;;;12.40;95.20;;;;;;5025866;28;20172;-91
2022/10/15 06:35:22;;;;;;;167.57;58.73;;;12.30;95.10;;;;;;5026284;28;20685;-91
2022/10/15 06:37:54;;;;;;;155.87;56.87;;;12.30;95.10;;;;;;5025786;28;20223;-91
2022/10/15 06:40:22;;;;;;;158.50;57.43;;;12.30;95.10;;;;;;5025112;28;20177;-91
2022/10/15 06:42:48;;;;;;;157.17;58.20;;;12.40;95.10;;;;;;5025277;28;20177;-91
2022/10/15 06:45:16;;;;;;;158.33;60.13;;;12.30;95.00;;;;;;5023593;28;20235;-91
2022/10/15 06:47:42;;;;;;;167.63;64.53;;;12.40;95.00;;;;;;5024878;28;20187;-92
2022/10/15 06:50:08;;;;;;;170.33;63.43;;;12.40;95.00;;;;;;5025208;28;20204;-91
2022/10/15 06:52:37;;;;;;;165.00;63.73;;;12.40;95.00;;;;;;5024302;28;20523;-91
2022/10/15 06:55:05;;;;;;;168.83;61.40;;;12.40;94.90;;;;;;5023009;28;20216;-91
2022/10/15 06:57:31;;;;;;;156.53;59.50;;;12.40;94.90;;;;;;5023114;28;20176;-91
2022/10/15 06:59:57;;;;;;;167.03;65.47;;;12.40;94.90;;;;;;5022897;28;20529;-91
2022/10/15 07:03:12;;;;;;;170.50;66.47;;;12.40;94.90;;;;;;5024967;28;20192;-92
2022/10/15 07:05:38;;;;;;;177.03;65.07;;;12.40;94.90;;;;;;5027743;28;20201;-91
2022/10/15 07:08:04;;;;;;;173.83;64.50;;;12.40;94.80;;;;;;5028002;28;20183;-91
2022/10/15 07:10:30;;;;;;;170.10;66.93;;;12.40;94.80;;;;;;5027336;28;20551;-90
2022/10/15 07:12:59;;;;;;;161.27;63.00;;;12.40;94.80;;;;;;5026179;28;20172;-91
2022/10/15 07:15:24;;;;;;;164.73;64.23;;;12.50;94.80;;;;;;5023503;28;20224;-91
2022/10/15 07:17:52;;;;;;;165.13;64.23;;;12.50;94.80;;;;;;5021596;28;20188;-91
2022/10/15 07:20:19;;;;;;;174.37;67.43;;;12.50;94.80;;;;;;5022543;28;20207;-90
2022/10/15 07:22:44;;;;;;;160.57;62.50;;;12.60;94.80;;;;;;5023549;28;20220;-90
2022/10/15 07:25:10;;;;;;;160.00;61.30;;;12.50;94.60;;;;;;5021001;28;20200;-90
2022/10/15 07:27:37;;;;;;;154.20;63.60;;;12.50;94.50;;;;;;5022265;28;20180;-91
2022/10/15 07:30:04;;;;;;;144.33;61.67;;;12.50;94.50;;;;;;5021832;28;20208;-91
2022/10/15 07:32:30;;;;;;;143.60;57.63;;;12.50;94.50;;;;;;5021625;28;20181;-91
2022/10/15 07:34:56;;;;;;;147.70;60.63;;;12.50;94.40;;;;;;5021240;28;20204;-90
2022/10/15 07:37:21;;;;;;;144.70;55.13;;;12.50;94.40;;;;;;5021947;28;20180;-90
2022/10/15 07:39:47;;;;;;;133.53;54.40;;;12.50;94.30;;;;;;5021246;28;20180;-90
2022/10/15 07:42:12;;;;;;;128.03;53.50;;;12.50;94.30;;;;;;5022423;28;20176;-91
2022/10/15 07:44:38;;;;;;;142.37;56.33;;;12.40;94.20;;;;;;5021541;28;20201;-90
2022/10/15 07:47:05;;;;;;;134.27;53.33;;;12.50;94.30;;;;;;5021364;28;20177;-91
2022/10/15 07:49:30;;;;;;;121.30;54.13;;;12.50;94.30;;;;;;5021306;28;20246;-90
2022/10/15 07:51:56;;;;;;;124.67;50.33;;;12.50;94.20;;;;;;5020727;28;20173;-90
2022/10/15 07:54:21;;;;;;;118.30;48.63;;;12.60;94.20;;;;;;5020100;28;20615;-90
2022/10/15 07:56:47;;;;;;;121.87;50.00;;;12.60;94.30;;;;;;5020564;28;20176;-90
2022/10/15 07:59:13;;;;;;;117.77;48.13;;;12.60;94.10;;;;;;5020066;28;20267;-90
2022/10/15 08:01:41;;;;;;;109.07;45.87;;;12.70;94.10;;;;;;5019650;28;20297;-90
2022/10/15 08:04:07;;;;;;;103.07;43.80;;;12.70;94.00;;;;;;5020388;28;20208;-90
2022/10/15 08:06:32;;;;;;;103.17;43.17;;;12.80;94.00;;;;;;5021425;28;20557;-90
2022/10/15 08:08:58;;;;;;;98.47;45.60;;;12.70;93.80;;;;;;5023372;28;20234;-91
2022/10/15 08:11:26;;;;;;;102.03;45.93;;;12.80;93.80;;;;;;5020154;28;20172;-91
2022/10/15 08:13:57;;;;;;;99.43;43.27;;;12.70;93.60;;;;;;5020281;28;20220;-92
2022/10/15 08:16:23;;;;;;;95.23;43.93;;;12.80;93.70;;;;;;5025954;28;20241;-91
2022/10/15 08:18:48;;;;;;;98.83;44.10;;;12.80;93.60;;;;;;5025234;28;20208;-91
2022/10/15 08:21:15;;;;;;;102.17;43.43;;;12.90;93.70;;;;;;5026288;28;20191;-91
2022/10/15 08:23:41;;;;;;;93.87;41.67;;;13.20;93.70;;;;;;5026746;28;20212;-91
2022/10/15 08:26:07;;;;;;;95.87;44.57;;;13.20;93.60;;;;;;5024526;28;20266;-90
2022/10/15 08:28:34;;;;;;;102.60;45.40;;;13.30;93.40;;;;;;5020575;28;20275;-90
2022/10/15 08:31:00;;;;;;;82.63;39.00;;;13.10;93.20;;;;;;5021804;28;20252;-90
2022/10/15 08:33:27;;;;;;;78.43;37.00;;;13.10;92.90;;;;;;5019810;28;20176;-91
2022/10/15 08:35:53;;;;;;;85.70;39.93;;;13.00;92.80;;;;;;5022077;28;20669;-90
2022/10/15 08:38:19;;;;;;;85.00;41.23;;;13.00;92.70;;;;;;5022988;28;20180;-90
2022/10/15 08:40:50;;;;;;;76.13;37.13;;;13.10;92.80;;;;;;5022017;28;20657;-91
2022/10/15 08:43:40;;;;;;;81.60;41.27;;;13.20;92.80;;;;;;5021066;28;20208;-91
2022/10/15 08:46:11;;;;;;;84.63;39.93;;;13.20;92.70;;;;;;5022355;28;20598;-91
2022/10/15 08:48:51;;;;;;;81.40;40.90;;;13.30;92.60;;;;;;5021625;28;20204;-91
2022/10/15 08:51:20;;;;;;;78.17;38.20;;;13.30;92.50;;;;;;5021959;28;20654;-91
2022/10/15 08:53:59;;;;;;;75.17;38.53;;;13.30;92.00;;;;;;5022008;28;20201;-91
2022/10/15 08:56:36;;;;;;;86.37;40.77;;;13.50;92.00;;;;;;5021782;28;20549;-90
2022/10/15 08:59:38;;;;;;;80.27;39.20;;;13.50;91.90;;;;;;5022017;28;20528;-91
2022/10/15 09:02:18;;;;;;;73.57;37.73;;;13.50;91.80;;;;;;5023983;28;20165;-90
2022/10/15 09:05:20;;;;;;;76.57;38.30;;;13.40;91.60;;;;;;5021125;28;20196;-90
2022/10/15 09:08:09;;;;;;;63.07;33.23;;;13.40;91.60;;;;;;5020804;28;20167;-90
2022/10/15 09:10:50;;;;;;;71.20;37.57;;;13.50;91.50;;;;;;5022144;28;20173;-91
2022/10/15 09:13:36;;;;;;;69.60;35.67;;;13.60;91.50;;;;;;5019809;28;20168;-90
2022/10/15 09:16:25;;;;;;;72.53;35.87;;;13.80;91.50;;;;;;5019192;28;20223;-90
2022/10/15 09:18:54;;;;;;;67.60;36.00;;;13.90;91.10;;;;;;5019571;28;20176;-91
2022/10/15 09:21:24;;;;;;;68.40;35.37;;;14.30;91.20;;;;;;5019869;28;20215;-90
2022/10/15 09:23:51;;;;;;;67.90;34.77;;;14.20;90.00;;;;;;5018361;28;20240;-90
2022/10/15 09:26:32;;;;;;;69.87;36.50;;;14.40;90.20;;;;;;5019159;28;20639;-90
2022/10/15 09:29:06;;;;;;;65.37;35.97;;;14.50;89.90;;;;;;5017477;28;20658;-90
2022/10/15 09:31:49;;;;;;;57.03;32.92;;;14.60;89.80;;;;;;5018701;28;20176;-90
2022/10/15 09:34:26;;;;;;;60.22;33.05;;;14.60;88.90;;;;;;5017223;28;20246;-90
2022/10/15 09:36:57;;;;;;;60.08;34.50;;;14.50;88.00;;;;;;5018975;28;20540;-90
2022/10/15 09:39:49;;;;;;;52.63;30.13;;;14.50;89.00;;;;;;5019027;28;20172;-91
2022/10/15 09:42:26;;;;;;;51.87;29.83;;;14.80;88.60;;;;;;5019993;28;20173;-91
2022/10/15 09:44:59;;;;;;;50.10;30.30;;;14.80;88.30;;;;;;5018943;28;20200;-91
2022/10/15 09:47:36;;;;;;;54.03;29.58;;;14.90;88.40;;;;;;5019522;28;20638;-91
2022/10/15 09:50:04;;;;;;;49.47;29.73;;;15.00;87.80;;;;;;5017474;28;20235;-90
2022/10/15 09:53:10;;;;;;;50.97;29.08;;;15.10;87.90;;;;;;5018969;28;20215;-91
2022/10/15 09:55:57;;;;;;;46.80;26.63;;;15.30;88.10;;;;;;5018736;28;20670;-91
2022/10/15 09:58:28;;;;;;;46.85;28.17;;;15.30;87.00;;;;;;5016627;28;20622;-90
2022/10/15 10:01:05;;;;;;;49.20;26.85;;;15.20;86.90;;;;;;5018728;28;20172;-90
2022/10/15 10:03:33;;;;;;;46.42;26.95;;;15.40;87.00;;;;;;5020746;28;20176;-90
2022/10/15 10:06:17;;;;;;;46.15;26.98;;;15.40;86.20;;;;;;5026987;28;20157;-91
2022/10/15 10:08:54;;;;;;;44.08;27.45;;;15.50;86.30;;;;;;5022624;28;20200;-91
2022/10/15 10:11:22;;;;;;;46.30;26.73;;;15.60;86.10;;;;;;5021456;28;20185;-91
2022/10/15 10:13:47;;;;;;;44.53;26.05;;;15.60;85.90;;;;;;5021426;28;20395;-91
2022/10/15 10:16:18;;;;;;;50.38;27.25;;;15.60;86.20;;;;;;5021693;28;20714;-91
2022/10/15 10:19:00;;;;;;;43.58;26.83;;;15.70;86.20;;;;;;5022115;28;20172;-91
2022/10/15 10:21:35;;;;;;;46.08;25.90;;;15.70;85.40;;;;;;5022104;28;20533;-90
2022/10/15 10:24:29;;;;;;;41.35;24.80;;;15.70;85.70;;;;;;5022147;28;20568;-91
2022/10/15 10:26:55;;;;;;;45.88;24.55;;;15.70;85.20;;;;;;5011411;28;20188;-90
2022/10/15 10:29:25;;;;;;;41.20;25.98;;;15.80;84.80;;;;;;5020442;28;20228;-90
2022/10/15 10:31:51;;;;;;;40.25;25.15;;;15.80;84.80;;;;;;5020776;28;20264;-90
2022/10/15 10:34:25;;;;;;;42.15;25.38;;;16.00;84.90;;;;;;5020753;28;20189;-90
2022/10/15 10:36:52;;;;;;;39.67;24.52;;;16.10;84.20;;;;;;5021366;28;20635;-90
2022/10/15 10:39:26;;;;;;;36.90;21.90;;;16.30;84.50;;;;;;5021210;28;20184;-89
2022/10/15 10:41:57;;;;;;;37.50;22.70;;;16.10;83.80;;;;;;5020297;28;20173;-90
2022/10/15 10:44:33;;;;;;;36.88;20.02;;;16.20;84.40;;;;;;5021401;28;20283;-90
2022/10/15 10:47:05;;;;;;;31.65;19.67;;;16.20;83.50;;;;;;5019603;28;20180;-89
2022/10/15 10:49:57;;;;;;;32.47;20.48;;;16.40;84.10;;;;;;5030384;28;20201;-91
2022/10/15 10:52:22;;;;;;;28.75;18.05;;;16.40;82.10;;;;;;5053430;28;20188;-91
2022/10/15 10:55:05;;;;;;;29.48;19.92;;;15.90;82.80;;;;;;5033005;28;20193;-91
2022/10/15 10:57:58;;;;;;;28.25;18.17;;;16.00;83.60;;;;;;5047477;28;20172;-92
2022/10/15 11:00:42;;;;;;;28.88;20.10;;;15.90;83.80;;;;;;5023777;28;20173;-90
2022/10/15 11:03:28;;;;;;;35.00;19.80;;;15.90;83.90;;;;;;5021368;28;20177;-90
2022/10/15 11:06:19;;;;;;;30.77;18.20;;;15.90;83.90;;;;;;5038765;28;20251;-91
2022/10/15 11:09:03;;;;;;;26.77;17.60;;;16.00;83.50;;;;;;5037666;28;20201;-91
2022/10/15 11:11:40;;;;;;;30.27;17.85;;;15.90;83.40;;;;;;5021113;28;20191;-91
2022/10/15 11:14:18;;;;;;;30.95;17.98;;;16.00;83.10;;;;;;5019638;28;20192;-91
2022/10/15 11:17:03;;;;;;;29.80;17.95;;;16.00;83.30;;;;;;5020643;28;20230;-90
2022/10/15 11:19:42;;;;;;;25.80;17.13;;;15.90;83.00;;;;;;5036455;28;20619;-90
2022/10/15 11:22:34;;;;;;;25.60;16.90;;;15.90;82.30;;;;;;5018871;28;20192;-90
2022/10/15 11:25:23;;;;;;;29.33;15.57;;;16.00;82.80;;;;;;5038550;28;20228;-90
2022/10/15 11:28:05;;;;;;;23.30;14.05;;;16.00;82.10;;;;;;5022482;28;20169;-90
2022/10/15 11:30:58;;;;;;;25.02;15.75;;;16.00;81.50;;;;;;5022881;28;20205;-91
2022/10/15 11:33:36;;;;;;;26.73;14.88;;;15.90;81.50;;;;;;5025072;28;20583;-91
2022/10/15 11:36:35;;;;;;;23.63;14.65;;;16.00;81.40;;;;;;5020884;28;20165;-90
2022/10/15 11:39:38;;;;;;;23.00;15.68;;;16.00;82.00;;;;;;5020256;28;20549;-90
2022/10/15 11:42:17;;;;;;;26.02;15.45;;;16.00;81.40;;;;;;5039594;28;20164;-91
2022/10/15 11:45:29;;;;;;;24.27;16.33;;;16.30;82.20;;;;;;5030497;28;20688;-90
2022/10/15 11:48:08;;;;;;;31.08;14.73;;;16.30;81.50;;;;;;5019345;28;20251;-91
2022/10/15 11:50:40;;;;;;;21.13;12.85;;;16.30;80.20;;;;;;5037368;28;20196;-90
2022/10/15 11:53:34;;;;;;;16.70;11.07;;;16.50;79.90;;;;;;5023344;28;20528;-90
2022/10/15 11:56:35;;;;;;;15.77;10.98;;;16.70;77.80;;;;;;5042814;28;20153;-89
2022/10/15 11:59:09;;;;;;;18.30;11.80;;;17.00;77.80;;;;;;5029175;28;20192;-89
2022/10/15 12:01:48;;;;;;;18.92;12.02;;;17.10;77.50;;;;;;5042910;28;20168;-89
2022/10/15 12:04:47;;;;;;;20.15;11.73;;;17.00;77.00;;;;;;5042636;28;20685;-89
2022/10/15 12:07:22;;;;;;;17.20;9.68;;;17.10;77.90;;;;;;5042267;28;20158;-89
2022/10/15 12:09:53;;;;;;;12.13;8.32;;;16.90;76.10;;;;;;5042885;28;20685;-89
2022/10/15 12:12:30;;;;;;;14.38;8.93;;;17.00;75.20;;;;;;5042928;28;20157;-89
2022/10/15 12:15:39;;;;;;;14.57;9.95;;;17.00;76.00;;;;;;5025096;28;20575;-89
2022/10/15 12:18:26;;;;;;;20.20;9.65;;;16.80;76.60;;;;;;5025402;28;20259;-89
2022/10/15 12:20:54;;;;;;;17.27;10.43;;;16.70;76.60;;;;;;5042663;28;20168;-89
2022/10/15 12:23:40;;;;;;;22.30;10.35;;;16.90;76.70;;;;;;5043270;28;20184;-89
2022/10/15 12:26:27;;;;;;;18.55;8.73;;;17.20;77.30;;;;;;5042936;28;20188;-89
2022/10/15 12:28:56;;;;;;;15.27;9.60;;;17.20;75.70;;;;;;5042927;28;20188;-89
2022/10/15 12:31:23;;;;;;;13.07;9.27;;;17.00;75.40;;;;;;5042821;28;20180;-88
2022/10/15 12:33:56;;;;;;;14.73;8.65;;;17.10;75.00;;;;;;5025753;28;20196;-89
2022/10/15 12:36:29;;;;;;;18.60;8.95;;;17.10;74.90;;;;;;5025607;28;20168;-89
2022/10/15 12:39:01;;;;;;;12.73;9.00;;;17.00;75.90;;;;;;5043694;28;20180;-89
2022/10/15 12:41:38;;;;;;;13.07;8.13;;;17.30;76.10;;;;;;5044114;28;20180;-89
2022/10/15 12:44:24;;;;;;;22.63;8.38;;;17.40;74.50;;;;;;5026602;28;20193;-89
2022/10/15 12:46:50;;;;;;;14.23;7.88;;;17.30;75.10;;;;;;5025768;28;20176;-89
2022/10/15 12:49:31;;;;;;;12.20;7.18;;;17.40;76.00;;;;;;5043868;28;20695;-89
2022/10/15 12:52:20;;;;;;;12.35;8.30;;;17.40;75.60;;;;;;5024922;28;20172;-89
2022/10/15 12:54:46;;;;;;;13.38;8.80;;;17.30;74.90;;;;;;5026003;28;20189;-89
2022/10/15 12:57:44;;;;;;;14.82;9.00;;;17.30;75.10;;;;;;5043809;28;20173;-89
2022/10/15 13:00:25;;;;;;;14.02;9.23;;;17.10;75.10;;;;;;4983425;28;20211;-89
2022/10/15 13:02:59;;;;;;;14.40;9.48;;;17.20;76.00;;;;;;5026752;28;20177;-89
2022/10/15 13:05:29;;;;;;;14.27;8.45;;;17.40;75.70;;;;;;5044428;28;20184;-89
2022/10/15 13:07:57;;;;;;;18.42;9.35;;;17.50;74.70;;;;;;5044530;28;20181;-89